createdAt,value
2022-09-16T00:00:29.923Z,99104.40
2022-09-16T00:03:20.618Z,99102.34
2022-09-16T00:05:53.474Z,99106.65
2022-09-16T00:08:24.588Z,99105.84
2022-09-16T00:10:54.967Z,99111.19
2022-09-16T00:13:25.557Z,99115.23
2022-09-16T00:15:56.242Z,99116.33
2022-09-16T00:18:26.846Z,99118.80
2022-09-16T00:20:57.277Z,99121.92
2022-09-16T00:23:27.406Z,99122.77
2022-09-16T00:25:57.714Z,99123.40
2022-09-16T00:28:27.997Z,99123.94
2022-09-16T00:31:02.999Z,99120.88
2022-09-16T00:33:33.483Z,99119.80
2022-09-16T00:36:19.359Z,99120.86
2022-09-16T00:38:55.433Z,99119.44
2022-09-16T00:41:28.851Z,99120.33
2022-09-16T00:44:03.491Z,99123.32
2022-09-16T00:46:42.291Z,99120.67
2022-09-16T00:49:21.639Z,99126.16
2022-09-16T00:51:56.154Z,99124.85
2022-09-16T00:54:27.187Z,99127.38
2022-09-16T00:56:59.654Z,99125.94
2022-09-16T00:59:33.594Z,99122.02
2022-09-16T01:02:12.493Z,99126.91
2022-09-16T01:04:53.821Z,99131.23
2022-09-16T01:07:34.717Z,99131.41
2022-09-16T01:10:05.686Z,99133.66
2022-09-16T01:12:37.306Z,99132.79
2022-09-16T01:15:08.862Z,99130.04
2022-09-16T01:18:25.507Z,99122.28
2022-09-16T01:21:02.047Z,99128.84
2022-09-16T01:23:46.065Z,99126.73
2022-09-16T01:26:35.117Z,99129.78
2022-09-16T01:29:29.626Z,99129.58
2022-09-16T01:32:13.577Z,99131.98
2022-09-16T01:35:13.535Z,99137.78
2022-09-16T01:38:11.787Z,99141.35
2022-09-16T01:41:05.480Z,99140.48
2022-09-16T01:44:01.514Z,99131.30
2022-09-16T01:46:47.905Z,99131.30
2022-09-16T01:49:18.124Z,99133.31
2022-09-16T01:52:20.216Z,99127.51
2022-09-16T01:55:06.527Z,99126.66
2022-09-16T01:57:55.585Z,99127.64
2022-09-16T02:00:26.246Z,99129.81
2022-09-16T02:03:13.754Z,99129.02
2022-09-16T02:06:01.756Z,99124.94
2022-09-16T02:08:36.426Z,99129.18
2022-09-16T02:11:10.705Z,99125.06
2022-09-16T02:13:48.641Z,99125.05
2022-09-16T02:16:37.877Z,99126.45
2022-09-16T02:19:13.790Z,99132.92
2022-09-16T02:21:46.008Z,99127.27
2022-09-16T02:24:20.134Z,99126.94
2022-09-16T02:27:01.426Z,99126.60
2022-09-16T02:29:39.847Z,99123.10
2022-09-16T02:32:11.945Z,99127.27
2022-09-16T02:34:47.127Z,99127.33
2022-09-16T02:37:22.314Z,99128.05
2022-09-16T02:39:58.138Z,99130.27
2022-09-16T02:42:28.991Z,99130.30
2022-09-16T02:45:00.903Z,99127.66
2022-09-16T02:47:52.784Z,99132.52
2022-09-16T02:50:40.619Z,99137.98
2022-09-16T02:53:35.787Z,99134.70
2022-09-16T02:56:24.595Z,99133.72
2022-09-16T03:03:24.636Z,99130.47
2022-09-16T03:06:21.324Z,99131.98
2022-09-16T03:08:57.934Z,99135.29
2022-09-16T03:11:43.366Z,99132.17
2022-09-16T03:14:33.265Z,99139.23
2022-09-16T03:17:22.217Z,99142.39
2022-09-16T03:20:22.856Z,99145.54
2022-09-16T03:23:33.836Z,99142.65
2022-09-16T03:26:13.466Z,99144.57
2022-09-16T03:28:56.555Z,99145.81
2022-09-16T03:31:35.604Z,99149.67
2022-09-16T03:34:21.523Z,99147.21
2022-09-16T03:36:57.185Z,99147.36
2022-09-16T03:39:27.835Z,99144.61
2022-09-16T03:42:04.896Z,99143.92
2022-09-16T03:44:37.306Z,99142.50
2022-09-16T03:47:09.583Z,99141.10
2022-09-16T03:49:40.425Z,99144.73
2022-09-16T03:52:12.849Z,99140.11
2022-09-16T03:54:43.344Z,99140.85
2022-09-16T03:57:15.163Z,99145.23
2022-09-16T03:59:45.349Z,99139.67
2022-09-16T04:02:15.749Z,99142.25
2022-09-16T04:04:46.646Z,99142.26
2022-09-16T04:07:17.124Z,99147.78
2022-09-16T04:09:48.837Z,99156.04
2022-09-16T04:12:19.184Z,99155.00
2022-09-16T04:14:49.516Z,99152.92
2022-09-16T04:17:19.935Z,99160.88
2022-09-16T04:19:50.245Z,99158.05
2022-09-16T04:22:20.936Z,99161.58
2022-09-16T04:24:53.795Z,99158.05
2022-09-16T04:27:25.543Z,99161.95
2022-09-16T04:29:56.384Z,99158.34
2022-09-16T04:32:27.144Z,99157.08
2022-09-16T04:34:58.836Z,99160.58
2022-09-16T04:37:33.046Z,99163.48
2022-09-16T04:40:04.897Z,99157.68
2022-09-16T04:42:35.541Z,99165.23
2022-09-16T04:45:06.695Z,99166.09
2022-09-16T04:47:37.046Z,99163.92
2022-09-16T04:50:07.867Z,99164.64
2022-09-16T04:52:38.315Z,99164.51
2022-09-16T04:55:08.986Z,99170.69
2022-09-16T04:57:41.656Z,99176.16
2022-09-16T05:00:13.405Z,99175.48
2022-09-16T05:02:46.560Z,99174.10
2022-09-16T05:05:17.715Z,99174.29
2022-09-16T05:07:48.144Z,99178.48
2022-09-16T05:10:18.527Z,99174.70
2022-09-16T05:12:55.701Z,99174.73
2022-09-16T05:15:26.156Z,99174.23
2022-09-16T05:17:59.407Z,99177.44
2022-09-16T05:20:29.834Z,99179.00
2022-09-16T05:23:00.385Z,99179.20
2022-09-16T05:25:30.916Z,99172.91
2022-09-16T05:28:01.844Z,99174.48
2022-09-16T05:30:32.244Z,99173.86
2022-09-16T05:33:03.757Z,99169.08
2022-09-16T05:35:34.108Z,99169.48
2022-09-16T05:38:05.344Z,99173.14
2022-09-16T05:40:35.879Z,99170.20
2022-09-16T05:43:49.374Z,99161.92
2022-09-16T05:47:01.599Z,99166.98
2022-09-16T05:49:33.294Z,99158.19
2022-09-16T05:52:03.627Z,99158.90
2022-09-16T05:54:34.099Z,99168.52
2022-09-16T05:57:07.202Z,99170.22
2022-09-16T06:00:04.415Z,99165.98
2022-09-16T06:03:23.238Z,99164.81
2022-09-16T06:06:44.437Z,99164.20
2022-09-16T06:10:00.141Z,99159.64
2022-09-16T06:12:39.343Z,99159.85
2022-09-16T06:16:02.365Z,99156.51
2022-09-16T06:23:25.448Z,99163.21
2022-09-16T06:26:10.627Z,99164.54
2022-09-16T06:29:04.956Z,99164.12
2022-09-16T06:31:57.638Z,99167.35
2022-09-16T06:34:38.449Z,99173.33
2022-09-16T06:37:35.564Z,99173.48
2022-09-16T06:40:38.440Z,99176.38
2022-09-16T07:36:04.572Z,99187.20
2022-09-16T07:47:36.178Z,99178.23
2022-09-16T07:59:45.187Z,99169.30
2022-09-16T08:09:56.333Z,99174.34
2022-09-16T08:17:01.605Z,99173.50
2022-09-16T08:20:36.245Z,99176.09
2022-09-16T08:23:07.637Z,99177.45
2022-09-16T08:52:07.872Z,99172.30
2022-09-16T08:55:20.825Z,99167.40
2022-09-16T08:58:24.047Z,99172.23
2022-09-16T09:01:14.688Z,99167.02
2022-09-16T09:03:57.827Z,99168.90
2022-09-16T09:07:16.756Z,99163.35
2022-09-16T09:10:50.368Z,99163.44
2022-09-16T09:14:16.652Z,99163.92
2022-09-16T09:17:48.540Z,99159.91
2022-09-16T09:22:24.991Z,99162.73
2022-09-16T09:25:37.554Z,99163.58
2022-09-16T09:29:07.773Z,99163.55
2022-09-16T09:32:28.852Z,99153.33
2022-09-16T09:41:07.761Z,99160.34
2022-09-16T09:49:58.836Z,99164.65
2022-09-16T09:53:12.746Z,99172.09
2022-09-16T10:01:11.801Z,99172.85
2022-09-16T10:09:47.774Z,99179.52
2022-09-16T10:16:34.910Z,99177.27
2022-09-16T10:25:21.164Z,99170.04
2022-09-16T10:28:51.796Z,99166.92
2022-09-16T10:32:08.330Z,99168.86
2022-09-16T10:35:30.865Z,99163.78
2022-09-16T10:38:46.924Z,99174.09
2022-09-16T10:42:06.575Z,99175.16
2022-09-16T10:45:52.601Z,99176.45
2022-09-16T10:49:32.905Z,99183.11
2022-09-16T10:52:53.933Z,99169.91
2022-09-16T10:56:15.049Z,99182.21
2022-09-16T11:18:50.777Z,99181.58
2022-09-16T11:22:01.768Z,99183.66
2022-09-16T11:26:27.373Z,99181.61
2022-09-16T11:30:08.810Z,99183.25
2022-09-16T11:47:57.561Z,99175.82
2022-09-16T11:55:53.555Z,99178.54
2022-09-16T12:00:17.497Z,99165.15
2022-09-16T12:07:44.264Z,99162.37
2022-09-16T12:20:05.482Z,99163.98
2022-09-16T12:33:48.520Z,99149.44
2022-09-16T12:37:12.911Z,99149.10
2022-09-16T12:51:26.215Z,99149.73
2022-09-16T12:55:49.796Z,99152.73
2022-09-16T13:04:00.776Z,99147.80
2022-09-16T14:03:49.354Z,99119.20
2022-09-16T14:07:59.428Z,99123.68
2022-09-16T14:24:40.680Z,99103.89
2022-09-16T14:27:49.897Z,99112.67
2022-09-16T14:30:23.647Z,99110.52
2022-09-16T14:37:03.035Z,99115.84
2022-09-16T15:22:20.076Z,99096.45
2022-09-16T15:33:11.984Z,99086.84
2022-09-16T15:36:28.986Z,99085.04
2022-09-16T15:39:54.874Z,99086.88
2022-09-16T15:43:10.284Z,99086.43
2022-09-16T15:46:45.990Z,99082.77
2022-09-16T15:50:12.063Z,99081.03
2022-09-16T15:53:58.269Z,99085.13
2022-09-16T15:57:35.997Z,99088.38
2022-09-16T16:00:30.936Z,99085.14
2022-09-16T16:03:05.939Z,99085.52
2022-09-16T16:05:52.561Z,99084.28
2022-09-16T16:08:50.945Z,99082.89
2022-09-16T16:12:16.752Z,99085.59
2022-09-16T16:19:25.964Z,99086.80
2022-09-16T16:21:57.615Z,99087.88
2022-09-16T16:24:50.867Z,99083.27
2022-09-16T16:27:59.887Z,99089.35
2022-09-16T16:31:06.998Z,99086.64
2022-09-16T16:33:40.386Z,99087.89
2022-09-16T16:36:43.813Z,99086.80
2022-09-16T16:44:08.002Z,99093.95
2022-09-16T16:46:38.678Z,99093.95
2022-09-16T16:49:09.394Z,99093.89
2022-09-16T16:51:39.897Z,99092.05
2022-09-16T16:54:32.053Z,99095.69
2022-09-16T16:57:54.754Z,99096.69
2022-09-16T17:00:54.729Z,99100.63
2022-09-16T17:03:52.015Z,99099.45
2022-09-16T17:07:48.462Z,99106.34
2022-09-16T17:11:05.729Z,99110.59
2022-09-16T17:14:25.948Z,99110.12
2022-09-16T17:17:40.893Z,99114.08
2022-09-16T17:20:54.818Z,99110.36
2022-09-16T17:24:15.513Z,99118.92
2022-09-16T17:27:02.288Z,99117.05
2022-09-16T17:30:29.163Z,99113.70
2022-09-16T17:33:49.041Z,99119.54
2022-09-16T17:36:41.786Z,99116.82
2022-09-16T17:41:16.427Z,99117.02
2022-09-16T17:49:50.529Z,99122.83
2022-09-16T17:53:12.844Z,99126.42
2022-09-16T17:56:35.338Z,99121.83
2022-09-16T18:00:04.878Z,99123.95
2022-09-16T18:03:25.028Z,99125.45
2022-09-16T18:06:48.906Z,99126.72
2022-09-16T18:13:36.742Z,99120.49
2022-09-16T18:17:24.890Z,99119.25
2022-09-16T18:20:42.131Z,99118.23
2022-09-16T18:23:50.097Z,99118.44
2022-09-16T18:27:21.413Z,99120.71
2022-09-16T18:30:46.321Z,99116.63
2022-09-16T18:34:29.998Z,99116.98
2022-09-16T18:37:17.714Z,99114.77
2022-09-16T18:40:40.227Z,99119.71
2022-09-16T18:44:01.918Z,99118.27
2022-09-16T18:47:17.709Z,99120.25
2022-09-16T18:50:36.527Z,99117.33
2022-09-16T18:53:56.054Z,99117.85
2022-09-16T18:57:11.678Z,99119.25
2022-09-16T19:00:27.999Z,99120.54
2022-09-16T19:03:46.873Z,99128.75
2022-09-16T19:07:09.737Z,99124.85
2022-09-16T19:10:25.288Z,99125.81
2022-09-16T19:13:40.806Z,99120.52
2022-09-16T19:17:02.153Z,99121.27
2022-09-16T19:20:17.099Z,99118.02
2022-09-16T19:23:36.967Z,99117.85
2022-09-16T19:26:55.196Z,99120.15
2022-09-16T19:30:32.811Z,99124.02
2022-09-16T19:34:03.845Z,99121.96
2022-09-16T19:42:18.018Z,99123.16
2022-09-16T19:45:33.726Z,99114.27
2022-09-16T19:48:55.733Z,99115.33
2022-09-16T19:55:14.724Z,99116.09
2022-09-16T19:58:34.989Z,99114.39
2022-09-16T20:01:59.151Z,99108.67
2022-09-16T20:05:15.888Z,99106.59
2022-09-16T20:08:42.123Z,99102.02
2022-09-16T20:11:56.832Z,99100.33
2022-09-16T20:14:51.455Z,99109.33
2022-09-16T20:17:57.388Z,99107.13
2022-09-16T20:20:36.022Z,99101.50
2022-09-16T20:28:21.717Z,99098.06
2022-09-16T20:31:11.039Z,99102.30
2022-09-16T20:33:42.682Z,99104.60
2022-09-16T20:36:41.813Z,99108.09
2022-09-16T20:44:27.067Z,99118.40
2022-09-16T20:47:00.322Z,99120.37
2022-09-16T20:49:33.673Z,99121.63
2022-09-16T20:52:09.574Z,99121.27
2022-09-16T20:55:26.818Z,99126.66
2022-09-16T20:58:18.683Z,99124.43
2022-09-16T21:02:05.044Z,99127.30
2022-09-16T21:05:28.264Z,99133.34
2022-09-16T21:08:47.792Z,99132.15
2022-09-16T21:11:45.632Z,99135.48
2022-09-16T21:14:47.490Z,99131.25
2022-09-16T21:17:40.712Z,99131.85
2022-09-16T21:20:18.734Z,99128.85
2022-09-16T21:25:53.757Z,99129.68
2022-09-16T21:29:11.525Z,99125.96
2022-09-16T21:37:00.165Z,99120.60
2022-09-16T21:41:07.203Z,99122.67
2022-09-16T21:44:22.960Z,99122.38
2022-09-16T21:47:50.200Z,99128.19
2022-09-16T21:51:19.127Z,99125.71
2022-09-16T21:54:43.851Z,99126.90
2022-09-16T21:58:28.335Z,99127.77
2022-09-16T22:02:22.218Z,99130.11
2022-09-16T22:11:08.027Z,99131.47
2022-09-16T22:20:08.759Z,99121.70
2022-09-16T22:24:03.062Z,99113.02
2022-09-16T22:27:31.663Z,99120.36
2022-09-16T22:39:14.204Z,99117.10
2022-09-16T22:42:34.139Z,99117.19
2022-09-16T22:45:55.870Z,99111.37
2022-09-16T22:54:14.674Z,99115.08
2022-09-16T23:05:49.749Z,99106.59
2022-09-16T23:09:10.865Z,99106.52
2022-09-16T23:12:31.442Z,99108.67
2022-09-16T23:15:54.093Z,99105.77
2022-09-16T23:19:25.637Z,99110.24
2022-09-16T23:22:24.721Z,99107.89
2022-09-16T23:25:23.759Z,99106.95
2022-09-16T23:28:41.655Z,99101.55
2022-09-16T23:32:03.192Z,99096.11
2022-09-16T23:35:19.666Z,99096.42
2022-09-16T23:38:56.777Z,99091.33
2022-09-16T23:43:05.023Z,99087.73
2022-09-16T23:47:02.045Z,99091.27
2022-09-16T23:51:15.107Z,99092.88
